Time;durP1;ratioP1;P1;durP2;ratioP2;P2;SDS_P1;SDS_P2;PMS_P1;PMS_P2;Temp;Humidity;BMP_temperature;BMP_pressure;BME280_temperature;BME280_humidity;BME280_pressure;Samples;Min_cycle;Max_cycle;Signal;HPM_P1;HPM_P2
2023/05/11 00:02:01;;;;;;;9.93;3.80;;;;;;;0.00;0.00;73911.00;10546496;28;20043;-71
2023/05/11 00:07:02;;;;;;;9.52;4.15;;;;;;;0.00;0.00;73907.97;10554119;28;20088;-71
2023/05/11 00:12:04;;;;;;;9.50;4.18;;;;;;;0.00;0.00;73906.44;10557085;28;20078;-71
2023/05/11 00:17:06;;;;;;;7.75;3.42;;;;;;;0.00;0.00;73917.13;10557154;28;20050;-72
2023/05/11 00:22:07;;;;;;;7.47;3.20;;;;;;;0.00;0.00;73935.44;10555561;28;20048;-71
2023/05/11 00:27:09;;;;;;;9.68;3.80;;;;;;;0.00;0.00;73929.31;10549550;28;20050;-71
2023/05/11 00:32:11;;;;;;;10.10;4.25;;;;;;;0.00;0.00;73930.84;10555018;28;20097;-71
2023/05/11 00:37:12;;;;;;;8.77;3.47;;;;;;;0.00;0.00;73932.38;10563003;28;20040;-71
2023/05/11 00:42:14;;;;;;;5.50;2.28;;;;;;;0.00;0.00;73920.16;10553699;28;20423;-71
2023/05/11 00:47:16;;;;;;;11.45;4.38;;;;;;;0.00;0.00;73920.16;10561808;28;20040;-71
2023/05/11 00:52:18;;;;;;;7.50;2.90;;;;;;;0.00;0.00;73924.75;10545646;28;20047;-72
2023/05/11 00:57:20;;;;;;;12.02;4.03;;;;;;;0.00;0.00;73920.16;10548697;28;20048;-71
2023/05/11 01:02:21;;;;;;;10.30;4.47;;;;;;;0.00;0.00;73918.66;10538626;28;20048;-71
2023/05/11 01:07:27;;;;;;;10.75;4.32;;;;;;;0.00;0.00;73917.13;10562660;28;20043;-71
2023/05/11 01:12:45;;;;;;;10.30;3.90;;;;;;;0.00;0.00;73920.16;10536376;28;20696;-71
2023/05/11 01:18:00;;;;;;;11.48;4.47;;;;;;;0.00;0.00;73914.06;10547921;27;20036;-71
2023/05/11 01:23:17;;;;;;;9.13;4.15;;;;;;;0.00;0.00;73927.81;10570138;28;20040;-71
2023/05/11 01:28:38;;;;;;;11.30;4.05;;;;;;;0.00;0.00;73927.81;10563344;27;20048;-71
2023/05/11 01:33:50;;;;;;;15.35;4.72;;;;;;;0.00;0.00;73929.31;10549349;28;20039;-71
2023/05/11 01:38:53;;;;;;;13.63;4.07;;;;;;;0.00;0.00;73932.38;10570277;28;20043;-72
2023/05/11 01:44:01;;;;;;;12.48;3.95;;;;;;;0.00;0.00;73935.44;10554057;28;20040;-71
2023/05/11 01:49:08;;;;;;;8.75;4.32;;;;;;;0.00;0.00;73941.53;10551599;28;20411;-71
2023/05/11 01:54:10;;;;;;;14.65;4.28;;;;;;;0.00;0.00;73965.94;10553884;28;20044;-72
2023/05/11 01:59:13;;;;;;;11.48;3.92;;;;;;;0.00;0.00;73959.84;10561671;28;20035;-71
2023/05/11 02:04:18;;;;;;;11.57;4.82;;;;;;;0.00;0.00;73956.78;10570478;27;20040;-71
2023/05/11 02:09:21;;;;;;;10.85;4.28;;;;;;;0.00;0.00;73959.84;10557547;28;20052;-72
2023/05/11 02:14:27;;;;;;;17.83;5.72;;;;;;;0.00;0.00;73965.94;10554481;28;20126;-71
2023/05/11 02:19:31;;;;;;;12.50;4.90;;;;;;;0.00;0.00;73965.94;10556348;28;20052;-71
2023/05/11 02:24:34;;;;;;;15.93;5.68;;;;;;;0.00;0.00;73975.09;10553592;28;20036;-71
2023/05/11 02:29:36;;;;;;;18.42;5.85;;;;;;;0.00;0.00;73978.16;10558691;28;20047;-71
2023/05/11 02:34:40;;;;;;;10.93;4.60;;;;;;;0.00;0.00;73978.16;10551397;28;20039;-71
2023/05/11 02:39:45;;;;;;;13.00;5.00;;;;;;;0.00;0.00;73981.22;10550291;28;20565;-71
2023/05/11 02:44:55;;;;;;;11.10;4.30;;;;;;;0.00;0.00;73984.25;10561268;28;20039;-71
2023/05/11 02:50:00;;;;;;;16.17;5.57;;;;;;;0.00;0.00;73984.25;10556059;28;20511;-71
2023/05/11 02:55:05;;;;;;;13.80;4.97;;;;;;;0.00;0.00;73999.50;10548923;28;20070;-72
2023/05/11 03:00:07;;;;;;;11.60;5.10;;;;;;;0.00;0.00;73999.50;10560291;28;20529;-71
2023/05/11 03:05:09;;;;;;;16.08;4.10;;;;;;;0.00;0.00;74002.56;10540961;28;20051;-71
2023/05/11 03:10:10;;;;;;;10.63;4.70;;;;;;;0.00;0.00;74004.09;10549874;27;20058;-72
2023/05/11 03:15:17;;;;;;;11.15;4.60;;;;;;;0.00;0.00;74014.78;10556758;28;20070;-71
2023/05/11 03:20:22;;;;;;;14.07;4.53;;;;;;;0.00;0.00;74013.25;10556511;28;20062;-71
2023/05/11 03:25:24;;;;;;;11.55;4.30;;;;;;;0.00;0.00;74017.81;10556697;28;20140;-71
2023/05/11 03:30:27;;;;;;;13.05;5.20;;;;;;;0.00;0.00;74026.97;10547634;28;20499;-71
2023/05/11 03:35:33;;;;;;;14.63;4.88;;;;;;;0.00;0.00;74033.09;10546191;28;21187;-71
2023/05/11 03:40:37;;;;;;;11.15;4.63;;;;;;;0.00;0.00;74036.13;10556615;28;20241;-71
2023/05/11 03:45:41;;;;;;;9.27;3.83;;;;;;;0.01;0.00;59042.03;10555302;28;20586;-71
2023/05/11 03:50:43;;;;;;;10.85;3.40;;;;;;;0.00;0.00;74063.59;10555281;28;20122;-71
2023/05/11 03:55:45;;;;;;;13.07;4.72;;;;;;;0.01;0.00;59042.03;10563806;28;20135;-71
2023/05/11 04:00:47;;;;;;;12.95;4.68;;;;;;;0.01;0.00;59042.03;10564204;28;20047;-71
2023/05/11 04:05:48;;;;;;;11.13;3.17;;;;;;;0.00;0.00;74080.38;10538183;28;20118;-71
2023/05/11 04:10:50;;;;;;;10.55;3.88;;;;;;;0.00;0.00;74074.28;10564235;28;20043;-71
2023/05/11 04:15:52;;;;;;;10.75;3.10;;;;;;;0.00;0.00;74063.59;10557059;27;20050;-72
2023/05/11 04:20:55;;;;;;;9.55;3.35;;;;;;;0.00;0.00;74065.13;10565147;28;20055;-71
2023/05/11 04:25:56;;;;;;;11.20;3.63;;;;;;;0.00;0.00;74063.59;10548361;28;20046;-71
2023/05/11 04:30:58;;;;;;;12.77;4.05;;;;;;;0.00;0.00;74062.06;10554986;28;20416;-71
2023/05/11 04:36:00;;;;;;;10.05;3.15;;;;;;;0.00;0.00;74063.59;10563047;28;20146;-71
2023/05/11 04:41:07;;;;;;;11.23;3.40;;;;;;;0.00;0.00;74063.59;10564619;28;20423;-71
2023/05/11 04:46:09;;;;;;;11.25;4.93;;;;;;;0.00;0.00;74054.44;10538013;28;20040;-71
2023/05/11 04:51:11;;;;;;;13.80;4.82;;;;;;;0.00;0.00;74081.91;10547682;28;20156;-71
2023/05/11 04:56:18;;;;;;;15.15;3.97;;;;;;;0.00;0.00;74075.81;10541439;28;20040;-73
2023/05/11 05:01:22;;;;;;;8.98;3.45;;;;;;;0.00;0.00;74075.81;10571921;28;20058;-71
2023/05/11 05:06:23;;;;;;;8.18;3.40;;;;;;;0.00;0.00;74066.66;10557219;28;20036;-71
2023/05/11 05:11:25;;;;;;;9.60;3.65;;;;;;;0.00;0.00;74072.75;10564402;28;20055;-71
2023/05/11 05:16:26;;;;;;;6.82;3.05;;;;;;;0.00;0.00;74072.75;10552176;27;20040;-71
2023/05/11 05:21:31;;;;;;;10.20;3.75;;;;;;;0.00;0.00;74081.91;10554800;28;20070;-71
2023/05/11 05:26:32;;;;;;;9.18;2.97;;;;;;;0.00;0.00;74075.81;10558398;28;20109;-71
2023/05/11 05:31:34;;;;;;;9.15;3.30;;;;;;;0.00;0.00;74080.38;10553929;28;20051;-71
2023/05/11 05:36:37;;;;;;;6.68;2.22;;;;;;;0.00;0.00;74066.66;10559158;28;20051;-71
2023/05/11 05:41:41;;;;;;;17.38;4.80;;;;;;;0.00;0.00;74092.59;10548559;28;20055;-72
2023/05/11 05:46:44;;;;;;;14.55;3.22;;;;;;;0.00;0.00;74088.03;10569809;28;20126;-71
2023/05/11 05:51:46;;;;;;;11.55;3.17;;;;;;;0.00;0.00;74077.34;10561050;28;20044;-72
2023/05/11 05:56:49;;;;;;;15.85;4.05;;;;;;;0.00;0.00;74077.34;10547700;28;20127;-71
2023/05/11 06:01:50;;;;;;;9.57;3.65;;;;;;;0.00;0.00;74078.88;10540561;28;20059;-71
2023/05/11 06:06:52;;;;;;;14.88;4.95;;;;;;;0.00;0.00;74065.13;10551069;28;20065;-71
2023/05/11 06:11:54;;;;;;;16.40;5.13;;;;;;;0.00;0.00;74084.97;10559565;28;20073;-71
2023/05/11 06:16:58;;;;;;;13.70;4.18;;;;;;;0.00;0.00;74063.59;10567688;27;20044;-71
2023/05/11 06:22:02;;;;;;;15.23;4.38;;;;;;;0.00;0.00;74063.59;10556415;28;20055;-71
2023/05/11 06:27:08;;;;;;;10.50;4.45;;;;;;;0.00;0.00;74048.34;10567313;28;20078;-71
2023/05/11 06:32:09;;;;;;;14.02;4.28;;;;;;;0.00;0.00;74051.41;10551879;28;20055;-71
2023/05/11 06:37:19;;;;;;;13.40;4.13;;;;;;;0.00;0.00;74051.41;10559065;28;20043;-71
2023/05/11 06:42:23;;;;;;;14.00;4.53;;;;;;;0.00;0.00;74051.41;10567075;28;20484;-71
2023/05/11 06:47:25;;;;;;;13.73;4.90;;;;;;;0.00;0.00;74039.19;10533771;28;20415;-71
2023/05/11 06:52:27;;;;;;;19.25;5.25;;;;;;;0.00;0.00;74036.13;10545701;28;20131;-71
2023/05/11 06:57:29;;;;;;;10.55;4.05;;;;;;;0.00;0.00;74043.75;10550977;28;20776;-71
2023/05/11 07:02:30;;;;;;;13.20;4.57;;;;;;;0.00;0.00;74043.75;10557650;28;20055;-71
2023/05/11 07:07:32;;;;;;;15.65;5.18;;;;;;;0.00;0.00;73944.19;10558884;28;20123;-70
2023/05/11 07:12:33;;;;;;;11.32;4.72;;;;;;;0.00;0.00;74007.16;10567466;28;20423;-71
2023/05/11 07:17:35;;;;;;;16.58;4.75;;;;;;;0.00;0.00;74020.88;10565522;28;20422;-71
2023/05/11 07:22:36;;;;;;;8.68;3.28;;;;;;;0.00;0.00;74017.81;10555045;28;20388;-71
2023/05/11 07:27:38;;;;;;;14.18;4.85;;;;;;;0.00;0.00;74008.66;10538255;27;20812;-71
2023/05/11 07:32:39;;;;;;;12.63;4.57;;;;;;;0.00;0.00;73985.78;10552247;28;20050;-71
2023/05/11 07:37:41;;;;;;;16.25;5.03;;;;;;;0.00;0.00;73981.22;10558938;28;20078;-71
2023/05/11 07:42:43;;;;;;;16.13;5.40;;;;;;;0.00;0.00;73981.22;10555710;28;20154;-71
2023/05/11 07:47:44;;;;;;;12.77;4.55;;;;;;;0.00;0.00;73969.00;10543135;28;20412;-71
2023/05/11 07:52:46;;;;;;;13.93;4.50;;;;;;;0.00;0.00;73985.78;10539714;28;20121;-72
2023/05/11 07:57:48;;;;;;;14.82;5.53;;;;;;;0.00;0.00;73965.94;10539647;28;20369;-71
2023/05/11 08:02:49;;;;;;;18.48;6.15;;;;;;;;;;10537015;28;20322;-71
2023/05/11 08:07:51;;;;;;;16.92;5.22;;;;;;;0.00;0.00;73933.91;10539666;27;20177;-71
2023/05/11 08:12:52;;;;;;;11.48;4.28;;;;;;;0.00;0.00;73898.81;10528663;28;20043;-73
2023/05/11 08:17:54;;;;;;;12.27;3.47;;;;;;;0.00;0.00;73892.69;10527223;28;20048;-71
2023/05/11 08:22:56;;;;;;;12.32;4.05;;;;;;;0.00;0.00;73888.13;10537638;27;20171;-71
2023/05/11 08:27:58;;;;;;;10.25;3.83;;;;;;;0.00;0.00;73903.38;10537410;28;20619;-71
2023/05/11 08:32:59;;;;;;;11.57;4.35;;;;;;;0.00;0.00;73877.44;10532757;28;20043;-71
2023/05/11 08:38:01;;;;;;;9.98;4.25;;;;;;;0.00;0.00;73862.19;10551654;28;20035;-71
2023/05/11 08:43:04;;;;;;;13.05;4.22;;;;;;;0.00;0.00;73846.94;10560948;28;20051;-71
2023/05/11 08:48:06;;;;;;;11.77;4.47;;;;;;;0.00;0.00;73828.63;10555212;28;20063;-72
2023/05/11 08:53:07;;;;;;;9.23;3.92;;;;;;;0.00;0.00;73819.47;10554856;28;20055;-72
2023/05/11 08:58:09;;;;;;;9.90;3.70;;;;;;;0.00;0.00;73840.81;10544304;27;20644;-71
2023/05/11 09:03:11;;;;;;;9.70;3.67;;;;;;;0.00;0.00;73828.63;10553786;27;20043;-71
2023/05/11 09:08:16;;;;;;;10.20;3.83;;;;;;;0.00;0.00;73807.25;10537521;28;20050;-72
2023/05/11 09:13:17;;;;;;;11.82;3.92;;;;;;;0.00;0.00;73814.88;10538993;28;20131;-71
2023/05/11 09:18:19;;;;;;;8.93;3.38;;;;;;;0.00;0.00;73810.31;10538643;28;20074;-72
2023/05/11 09:23:25;;;;;;;8.93;2.80;;;;;;;0.00;0.00;73778.25;10536318;28;20066;-72
2023/05/11 09:28:27;;;;;;;7.63;3.53;;;;;;;0.00;0.00;73772.16;10551339;28;20040;-71
2023/05/11 09:33:35;;;;;;;7.38;2.72;;;;;;;0.00;0.00;73767.59;10546905;27;20446;-71
2023/05/11 09:38:37;;;;;;;5.78;2.58;;;;;;;0.00;0.00;73715.69;10552053;28;20127;-71
2023/05/11 09:43:38;;;;;;;5.47;2.47;;;;;;;0.00;0.00;73666.88;10562001;28;20788;-71
2023/05/11 09:48:40;;;;;;;5.45;2.30;;;;;;;0.00;0.00;73642.47;10548882;27;20147;-71
2023/05/11 09:53:44;;;;;;;;;;;;;;;0.00;0.00;73645.50;10562873;27;20415;-71
2023/05/11 09:58:56;;;;;;;4.97;2.15;;;;;;;0.00;0.00;73639.41;10561842;27;19930;-71
2023/05/11 10:04:00;;;;;;;6.70;2.92;;;;;;;0.00;0.00;73663.81;10543849;28;20074;-71
2023/05/11 10:09:24;;;;;;;4.70;2.10;;;;;;;0.00;0.00;73656.19;10561280;27;20048;-71
2023/05/11 10:14:26;;;;;;;4.47;2.10;;;;;;;0.00;0.00;73611.94;10554109;28;20048;-71
2023/05/11 10:19:28;;;;;;;4.75;1.88;;;;;;;0.00;0.00;73593.63;10550679;27;20146;-71
2023/05/11 10:24:31;;;;;;;5.20;2.05;;;;;;;0.00;0.00;73610.41;10560591;28;20105;-71
2023/05/11 10:29:33;;;;;;;4.22;2.10;;;;;;;0.00;0.00;73619.56;10560357;27;20036;-71
2023/05/11 10:34:35;;;;;;;3.28;1.90;;;;;;;0.00;0.00;73624.16;10560944;27;20047;-71
2023/05/11 10:39:38;;;;;;;4.55;2.00;;;;;;;0.00;0.00;73619.56;10560682;28;20502;-72
2023/05/11 10:45:02;;;;;;;4.60;2.20;;;;;;;0.00;0.00;73587.53;10560640;27;20105;-72
2023/05/11 10:50:32;;;;;;;4.45;1.90;;;;;;;0.00;0.00;73576.84;10549492;28;20070;-71
2023/05/11 10:55:51;;;;;;;5.07;1.83;;;;;;;0.00;0.00;73578.38;10568164;28;20055;-71
2023/05/11 11:01:05;;;;;;;5.38;2.30;;;;;;;0.00;0.00;73581.41;10568609;28;20036;-71
2023/05/11 11:06:21;;;;;;;4.25;1.90;;;;;;;0.00;0.00;73569.22;10567738;28;20420;-71
2023/05/11 11:11:31;;;;;;;5.15;1.88;;;;;;;0.00;0.00;73558.53;10549336;28;20054;-71
2023/05/11 11:16:32;;;;;;;6.38;2.45;;;;;;;0.00;0.00;73575.31;10566573;28;20048;-71
2023/05/11 11:21:41;;;;;;;5.82;2.22;;;;;;;0.00;0.00;73553.97;10563222;28;20047;-71
2023/05/11 11:26:49;;;;;;;4.57;2.13;;;;;;;0.00;0.00;73553.97;10558823;28;20031;-71
2023/05/11 11:31:51;;;;;;;3.67;1.75;;;;;;;0.00;0.00;73567.69;10551814;28;20067;-72
2023/05/11 11:37:02;;;;;;;6.10;2.58;;;;;;;0.00;0.00;73550.91;10555941;28;20051;-71
2023/05/11 11:42:11;;;;;;;5.53;2.38;;;;;;;0.00;0.00;73499.03;10553379;28;20048;-71
2023/05/11 11:47:14;;;;;;;;;;;;;;;0.00;0.00;73468.50;10542323;28;20418;-71
2023/05/11 11:52:25;;;;;;;7.07;2.63;;;;;;;0.00;0.00;73503.59;10535601;28;19943;-71
2023/05/11 11:57:42;;;;;;;8.60;3.45;;;;;;;0.00;0.00;73505.13;10543757;28;20088;-71
2023/05/11 12:02:44;;;;;;;8.05;3.33;;;;;;;0.00;0.00;73526.50;10542708;28;20044;-72
2023/05/11 12:07:49;;;;;;;10.88;4.55;;;;;;;0.00;0.00;73531.06;10539135;28;20036;-71
2023/05/11 12:12:56;;;;;;;9.63;3.45;;;;;;;0.00;0.00;73531.06;10529316;28;20047;-72
2023/05/11 12:18:02;;;;;;;;;;;;;;;0.00;0.00;73517.34;10542382;28;20051;-71
2023/05/11 12:23:03;;;;;;;11.55;4.82;;;;;;;0.00;0.00;73534.13;10558557;28;20531;-71
2023/05/11 12:28:05;;;;;;;10.45;5.25;;;;;;;0.00;0.00;73523.44;10563607;28;20044;-71
2023/05/11 12:33:07;;;;;;;13.27;5.75;;;;;;;0.00;0.00;73523.44;10543745;28;20055;-71
2023/05/11 12:38:09;;;;;;;12.48;5.82;;;;;;;0.00;0.00;73534.13;10558673;28;20031;-71
2023/05/11 12:43:16;;;;;;;11.73;5.13;;;;;;;0.00;0.00;73561.59;10563370;28;20561;-71
2023/05/11 12:48:18;;;;;;;11.20;5.53;;;;;;;0.00;0.00;73572.28;10561277;28;20096;-71
2023/05/11 12:53:21;;;;;;;8.35;4.22;;;;;;;0.00;0.00;73581.41;10559760;28;20045;-71
2023/05/11 12:58:22;;;;;;;8.77;4.13;;;;;;;0.00;0.00;73582.94;10563140;28;20035;-71
2023/05/11 13:03:32;;;;;;;7.70;3.60;;;;;;;0.00;0.00;73569.22;10562872;28;20511;-71
2023/05/11 13:08:45;;;;;;;6.45;3.03;;;;;;;0.00;0.00;73549.38;10545058;28;20048;-71
2023/05/11 13:13:50;;;;;;;9.18;4.32;;;;;;;0.00;0.00;73547.84;10515541;28;20795;-71
2023/05/11 13:18:58;;;;;;;7.63;3.65;;;;;;;0.00;0.00;73546.31;10564430;28;20105;-71
2023/05/11 13:24:00;;;;;;;6.95;3.35;;;;;;;0.00;0.00;73557.00;10570049;28;20040;-71
2023/05/11 13:29:02;;;;;;;7.70;3.78;;;;;;;0.00;0.00;73541.75;10551002;28;20498;-71
2023/05/11 13:34:11;;;;;;;6.20;2.90;;;;;;;0.00;0.00;73532.59;10548532;28;20134;-71
2023/05/11 13:39:13;;;;;;;6.72;3.20;;;;;;;0.00;0.00;73538.69;10539399;27;20036;-71
2023/05/11 13:44:15;;;;;;;4.97;2.58;;;;;;;0.00;0.00;73578.38;10549323;28;20074;-71
2023/05/11 13:49:16;;;;;;;5.25;2.40;;;;;;;0.00;0.00;73589.06;10539775;28;20118;-72
2023/05/11 13:54:18;;;;;;;4.72;2.35;;;;;;;0.00;0.00;73572.28;10535077;28;20512;-72
2023/05/11 13:59:20;;;;;;;5.47;2.50;;;;;;;0.00;0.00;73547.84;10543702;28;20043;-72
2023/05/11 14:04:21;;;;;;;3.38;1.60;;;;;;;0.00;0.00;73532.59;10548386;28;20047;-72
2023/05/11 14:09:23;;;;;;;5.97;2.70;;;;;;;0.00;0.00;73560.06;10568827;28;20051;-71
2023/05/11 14:14:25;;;;;;;3.10;1.80;;;;;;;0.00;0.00;73564.63;10556458;28;20051;-71
2023/05/11 14:19:26;;;;;;;4.55;1.98;;;;;;;0.00;0.00;73563.13;10546312;28;20036;-71
2023/05/11 14:24:28;;;;;;;3.75;1.88;;;;;;;0.00;0.00;73569.22;10548720;28;20050;-71
2023/05/11 14:29:29;;;;;;;4.97;2.30;;;;;;;0.00;0.00;73544.81;10553036;28;20067;-71
2023/05/11 14:34:31;;;;;;;7.05;2.80;;;;;;;0.00;0.00;73572.28;10557468;28;20035;-71
2023/05/11 14:39:32;;;;;;;4.55;1.92;;;;;;;0.00;0.00;73550.91;10559183;28;20051;-71
2023/05/11 14:44:34;;;;;;;4.93;2.38;;;;;;;0.00;0.00;73532.59;10567915;28;20043;-72
2023/05/11 14:49:35;;;;;;;4.30;1.73;;;;;;;0.00;0.00;73543.28;10567154;28;20061;-72
2023/05/11 14:54:37;;;;;;;4.70;1.95;;;;;;;0.00;0.00;73566.16;10549493;28;20407;-72
2023/05/11 14:59:40;;;;;;;4.75;2.08;;;;;;;0.00;0.00;73569.22;10566783;28;20407;-72
2023/05/11 15:04:58;;;;;;;4.78;2.08;;;;;;;0.00;0.00;73573.78;10535400;28;20050;-72
2023/05/11 15:10:00;;;;;;;4.55;2.55;;;;;;;0.00;0.00;73569.22;10567052;28;20515;-72
2023/05/11 15:15:03;;;;;;;5.10;2.42;;;;;;;0.00;0.00;73563.13;10530960;28;20922;-72
2023/05/11 15:20:06;;;;;;;4.13;2.20;;;;;;;0.00;0.00;73569.22;10549192;27;20059;-72
2023/05/11 15:25:08;;;;;;;6.18;2.65;;;;;;;0.00;0.00;73567.69;10587349;27;20051;-72
2023/05/11 15:30:10;;;;;;;7.25;3.20;;;;;;;0.00;0.00;73586.00;10598762;27;20039;-72
2023/05/11 15:35:13;;;;;;;8.18;2.80;;;;;;;0.00;0.00;73636.34;10588824;27;20503;-71
2023/05/11 15:40:15;;;;;;;8.50;3.08;;;;;;;0.00;0.00;73645.50;10572612;27;20055;-72
2023/05/11 15:45:16;;;;;;;10.10;2.65;;;;;;;0.00;0.00;73669.94;10598243;27;20050;-71
2023/05/11 15:50:18;;;;;;;7.95;2.85;;;;;;;0.00;0.00;73676.03;10600298;27;20042;-71
2023/05/11 15:55:22;;;;;;;6.38;2.35;;;;;;;0.00;0.00;73671.44;10571538;27;20084;-71
2023/05/11 16:00:23;;;;;;;9.63;3.40;;;;;;;0.00;0.00;73668.41;10594574;27;20487;-71
2023/05/11 16:05:25;;;;;;;10.32;3.05;;;;;;;0.00;0.00;73676.03;10566921;27;20069;-71
2023/05/11 16:10:27;;;;;;;8.18;3.53;;;;;;;0.00;0.00;73691.28;10598262;27;20510;-71
2023/05/11 16:15:30;;;;;;;11.48;4.22;;;;;;;0.00;0.00;73700.44;10574420;27;20130;-71
2023/05/11 16:20:31;;;;;;;10.10;3.58;;;;;;;0.00;0.00;73698.91;10577149;27;20514;-71
2023/05/11 16:25:33;;;;;;;12.02;4.47;;;;;;;0.00;0.00;73705.03;10572870;27;20479;-71
2023/05/11 16:30:35;;;;;;;18.13;5.65;;;;;;;0.00;0.00;73697.38;10589269;27;20040;-70
2023/05/11 16:35:36;;;;;;;14.07;6.53;;;;;;;0.00;0.00;73709.59;10563329;28;20672;-71
2023/05/11 16:40:38;;;;;;;15.95;7.22;;;;;;;0.00;0.00;73718.75;10603238;27;20039;-71
2023/05/11 16:45:39;;;;;;;21.80;7.88;;;;;;;0.00;0.00;73718.75;10589131;27;20039;-72
2023/05/11 16:50:41;;;;;;;15.52;5.50;;;;;;;0.00;0.00;73709.59;10588512;27;20096;-72
2023/05/11 16:55:43;;;;;;;18.08;7.97;;;;;;;0.00;0.00;73717.22;10588839;28;20031;-72
2023/05/11 17:00:44;;;;;;;16.98;7.00;;;;;;;0.00;0.00;73715.69;10590741;28;20040;-72
2023/05/11 17:05:46;;;;;;;16.95;6.35;;;;;;;0.00;0.00;73715.69;10569586;28;20231;-72
2023/05/11 17:10:48;;;;;;;15.57;6.85;;;;;;;0.00;0.00;73721.81;10588440;27;20061;-73
2023/05/11 17:15:50;;;;;;;16.42;7.43;;;;;;;0.00;0.00;73749.28;10570330;28;20046;-74
2023/05/11 17:20:55;;;;;;;16.52;6.95;;;;;;;0.00;0.00;73758.44;10584977;28;20071;-75
2023/05/11 17:25:58;;;;;;;15.95;7.03;;;;;;;0.00;0.00;73759.94;10596031;28;20475;-76
2023/05/11 17:31:10;;;;;;;17.65;7.25;;;;;;;0.00;0.00;73763.00;10563522;28;20126;-76
2023/05/11 17:36:12;;;;;;;14.98;5.95;;;;;;;0.00;0.00;73772.16;10582891;28;20069;-76
2023/05/11 17:41:14;;;;;;;12.50;5.00;;;;;;;0.00;0.00;73788.94;10562335;28;20557;-77
2023/05/11 17:46:15;;;;;;;12.25;5.07;;;;;;;0.00;0.00;73792.00;10576077;28;20052;-76
2023/05/11 17:51:19;;;;;;;12.88;4.72;;;;;;;0.00;0.00;73798.09;10583246;28;20115;-76
2023/05/11 17:56:21;;;;;;;12.40;5.75;;;;;;;0.00;0.00;73810.31;10569934;28;20127;-76
2023/05/11 18:01:22;;;;;;;11.60;4.82;;;;;;;0.00;0.00;73821.00;10582496;27;20035;-76
2023/05/11 18:06:24;;;;;;;9.48;4.05;;;;;;;0.00;0.00;73825.56;10586979;27;20143;-75
2023/05/11 18:11:26;;;;;;;8.30;3.90;;;;;;;0.00;0.00;73830.16;10572149;27;20050;-76
2023/05/11 18:16:28;;;;;;;8.55;3.92;;;;;;;0.00;0.00;73831.66;10584453;27;20050;-75
2023/05/11 18:21:30;;;;;;;9.05;4.07;;;;;;;0.00;0.00;73845.41;10576698;27;20043;-75
2023/05/11 18:26:31;;;;;;;8.82;4.32;;;;;;;0.00;0.00;73840.81;10594583;27;20498;-75
2023/05/11 18:31:33;;;;;;;8.48;4.07;;;;;;;0.00;0.00;73849.97;10578847;27;20199;-75
2023/05/11 18:36:34;;;;;;;11.57;4.03;;;;;;;0.00;0.00;73865.25;10577466;27;20035;-74
2023/05/11 18:41:36;;;;;;;9.13;3.88;;;;;;;0.00;0.00;73869.81;10597301;27;20491;-75
2023/05/11 18:46:37;;;;;;;11.55;4.72;;;;;;;0.00;0.00;73868.28;10555535;27;20043;-74
2023/05/11 18:51:39;;;;;;;11.05;4.93;;;;;;;0.00;0.00;73880.50;10583094;27;20135;-75
2023/05/11 18:56:41;;;;;;;9.05;4.13;;;;;;;0.00;0.00;73874.41;10584497;27;20054;-75
2023/05/11 19:01:43;;;;;;;11.85;4.78;;;;;;;0.00;0.00;73871.34;10601772;27;20064;-75
2023/05/11 19:06:48;;;;;;;10.60;4.07;;;;;;;0.00;0.00;73874.41;10562227;27;20035;-74
2023/05/11 19:11:50;;;;;;;10.48;4.82;;;;;;;0.00;0.00;73877.44;10537545;27;20104;-75
2023/05/11 19:16:51;;;;;;;10.43;4.30;;;;;;;0.00;0.00;73880.50;10576733;27;20564;-74
2023/05/11 19:21:53;;;;;;;16.02;5.47;;;;;;;0.00;0.00;73871.34;10598218;27;20039;-74
2023/05/11 19:26:55;;;;;;;10.38;4.63;;;;;;;0.00;0.00;73888.13;10583162;27;20166;-74
2023/05/11 19:32:08;;;;;;;9.63;4.68;;;;;;;0.00;0.00;73891.19;10582250;27;20104;-74
2023/05/11 19:37:10;;;;;;;11.40;5.20;;;;;;;0.00;0.00;73894.22;10581285;27;20100;-74
2023/05/11 19:42:11;;;;;;;11.52;5.32;;;;;;;0.00;0.00;73895.75;10590572;27;20043;-75
2023/05/11 19:47:13;;;;;;;13.80;4.80;;;;;;;0.00;0.00;73892.69;10591929;27;20444;-74
2023/05/11 19:52:15;;;;;;;12.40;5.55;;;;;;;0.00;0.00;73886.59;10579181;27;20055;-74
2023/05/11 19:57:17;;;;;;;13.20;5.75;;;;;;;0.00;0.00;73898.81;10600374;27;20050;-74
2023/05/11 20:02:18;;;;;;;14.45;5.32;;;;;;;0.00;0.00;73904.91;10606345;27;20043;-74
2023/05/11 20:07:21;;;;;;;10.00;4.90;;;;;;;0.00;0.00;73912.53;10558602;27;20049;-75
2023/05/11 20:12:25;;;;;;;12.80;4.57;;;;;;;0.00;0.00;73920.16;10566195;27;20050;-74
2023/05/11 20:17:30;;;;;;;13.32;5.13;;;;;;;0.00;0.00;73927.81;10584043;27;20052;-75
2023/05/11 20:22:31;;;;;;;16.50;5.00;;;;;;;0.00;0.00;73926.28;10586207;27;20088;-74
2023/05/11 20:27:33;;;;;;;10.68;4.55;;;;;;;0.00;0.00;73933.91;10556641;27;20046;-75
2023/05/11 20:32:36;;;;;;;9.43;4.63;;;;;;;0.00;0.00;73932.38;10561325;27;20487;-75
2023/05/11 20:37:38;;;;;;;9.48;4.95;;;;;;;0.00;0.00;73933.91;10592755;27;20054;-74
2023/05/11 20:42:40;;;;;;;11.27;4.60;;;;;;;0.00;0.00;73941.53;10566159;27;20039;-74
2023/05/11 20:47:41;;;;;;;10.77;4.50;;;;;;;0.00;0.00;73941.53;10588368;27;20050;-74
2023/05/11 20:52:43;;;;;;;10.70;4.60;;;;;;;0.00;0.00;73938.47;10574945;27;20059;-75
2023/05/11 20:57:44;;;;;;;9.38;4.22;;;;;;;0.00;0.00;73936.94;10562952;28;20058;-75
2023/05/11 21:02:46;;;;;;;14.10;5.13;;;;;;;0.00;0.00;73943.06;10557155;28;20727;-74
2023/05/11 21:07:48;;;;;;;8.18;3.70;;;;;;;0.00;0.00;73944.59;10572614;28;20102;-74
2023/05/11 21:12:49;;;;;;;10.63;4.85;;;;;;;0.00;0.00;73950.69;10584328;28;20039;-74
2023/05/11 21:17:52;;;;;;;9.90;4.20;;;;;;;0.00;0.00;73950.69;10582417;27;20035;-74
2023/05/11 21:22:53;;;;;;;10.63;5.22;;;;;;;0.00;0.00;73944.59;10588082;28;20032;-74
2023/05/11 21:27:55;;;;;;;13.63;5.82;;;;;;;0.00;0.00;73935.44;10592472;28;20043;-74
2023/05/11 21:32:56;;;;;;;12.63;5.20;;;;;;;0.00;0.00;73929.31;10576606;28;20544;-74
2023/05/11 21:37:58;;;;;;;10.98;5.22;;;;;;;0.00;0.00;73936.94;10583449;27;20051;-74
2023/05/11 21:42:59;;;;;;;13.30;5.72;;;;;;;0.00;0.00;73935.44;10579887;27;20441;-74
2023/05/11 21:48:01;;;;;;;9.52;4.95;;;;;;;0.00;0.00;73932.38;10556988;27;20035;-74
2023/05/11 21:53:03;;;;;;;16.85;5.30;;;;;;;0.00;0.00;73933.91;10591736;27;20521;-74
2023/05/11 21:58:05;;;;;;;11.43;5.10;;;;;;;0.00;0.00;73932.38;10583416;27;20518;-74
2023/05/11 22:03:06;;;;;;;12.02;6.35;;;;;;;0.00;0.00;73944.59;10584598;27;20664;-74
2023/05/11 22:08:08;;;;;;;11.73;5.07;;;;;;;0.00;0.00;73941.53;10576073;27;20539;-74
2023/05/11 22:13:16;;;;;;;12.32;4.85;;;;;;;0.00;0.00;73936.94;10610697;27;20510;-75
2023/05/11 22:18:17;;;;;;;10.23;4.93;;;;;;;0.00;0.00;73933.91;10583950;27;20221;-74
2023/05/11 22:23:19;;;;;;;12.90;4.63;;;;;;;0.00;0.00;73940.00;10592065;27;20704;-74
2023/05/11 22:28:21;;;;;;;15.02;6.18;;;;;;;0.00;0.00;73938.47;10573652;27;20040;-74
2023/05/11 22:33:23;;;;;;;11.90;4.97;;;;;;;0.00;0.00;73929.31;10567227;27;20043;-74
2023/05/11 22:38:25;;;;;;;12.50;5.13;;;;;;;0.00;0.00;73927.81;10599605;27;20210;-74
2023/05/11 22:43:26;;;;;;;9.02;4.50;;;;;;;0.00;0.00;73932.38;10567622;27;20096;-74
2023/05/11 22:48:28;;;;;;;12.63;5.72;;;;;;;0.00;0.00;73929.31;10590310;27;20039;-74
2023/05/11 22:53:30;;;;;;;11.73;5.68;;;;;;;0.00;0.00;73930.84;10589989;27;20047;-74
2023/05/11 22:58:32;;;;;;;12.75;6.07;;;;;;;0.00;0.00;73927.81;10555729;27;20039;-74
2023/05/11 23:03:33;;;;;;;12.13;5.82;;;;;;;0.00;0.00;59042.03;10608037;27;20051;-74
2023/05/11 23:08:35;;;;;;;12.93;5.15;;;;;;;0.01;0.00;59042.03;10573756;27;20093;-74
2023/05/11 23:13:37;;;;;;;13.93;6.32;;;;;;;0.01;0.00;59042.03;10571974;27;20534;-74
2023/05/11 23:18:38;;;;;;;18.00;7.00;;;;;;;0.01;0.00;59042.03;10568518;27;20410;-74
2023/05/11 23:23:43;;;;;;;12.40;6.25;;;;;;;0.01;0.00;59042.03;10563201;27;20047;-74
2023/05/11 23:28:45;;;;;;;14.35;6.70;;;;;;;0.01;0.00;59042.03;10565207;28;20039;-73
2023/05/11 23:33:46;;;;;;;15.48;6.38;;;;;;;0.01;0.00;59042.03;10558613;27;20506;-73
2023/05/11 23:38:48;;;;;;;14.63;6.80;;;;;;;0.01;0.00;59042.03;10588317;27;20031;-74
2023/05/11 23:43:49;;;;;;;12.32;6.20;;;;;;;0.01;0.00;59042.03;10542779;28;20043;-73
2023/05/11 23:48:51;;;;;;;13.75;6.35;;;;;;;0.01;0.00;59042.03;10594655;27;20039;-73
2023/05/11 23:53:52;;;;;;;18.75;7.13;;;;;;;0.01;0.00;59042.03;10576566;27;20097;-73
2023/05/11 23:58:54;;;;;;;12.00;6.32;;;;;;;0.01;0.00;59042.03;10545958;27;20352;-73
